createdAt,value
2023-03-29T00:03:41.997Z,179.74
2023-03-29T00:07:42.078Z,180.00
2023-03-29T00:11:42.401Z,178.96
2023-03-29T00:15:42.486Z,178.94
2023-03-29T00:19:42.698Z,179.01
2023-03-29T00:23:42.904Z,178.72
2023-03-29T00:27:43.091Z,179.48
2023-03-29T00:31:43.404Z,178.87
2023-03-29T00:35:43.578Z,178.56
2023-03-29T00:39:43.736Z,178.53
2023-03-29T00:43:43.900Z,178.51
2023-03-29T00:47:44.153Z,178.93
2023-03-29T00:51:44.334Z,178.72
2023-03-29T00:55:44.548Z,178.11
2023-03-29T00:59:44.746Z,178.00
2023-03-29T01:03:45.001Z,177.91
2023-03-29T01:07:45.177Z,177.98
2023-03-29T01:11:45.418Z,177.92
2023-03-29T01:15:45.628Z,177.45
2023-03-29T01:19:45.827Z,177.39
2023-03-29T01:23:46.087Z,177.30
2023-03-29T01:27:46.306Z,177.57
2023-03-29T01:31:46.572Z,177.15
2023-03-29T01:35:46.755Z,176.95
2023-03-29T01:39:47.018Z,176.54
2023-03-29T01:43:47.209Z,177.05
2023-03-29T01:47:47.562Z,176.50
2023-03-29T01:51:47.650Z,176.93
2023-03-29T01:55:47.867Z,177.01
2023-03-29T01:59:48.096Z,176.28
2023-03-29T02:03:48.355Z,177.13
2023-03-29T02:07:48.538Z,176.03
2023-03-29T02:11:48.819Z,176.64
2023-03-29T02:15:49.087Z,176.46
2023-03-29T02:19:49.190Z,176.02
2023-03-29T02:23:49.425Z,176.45
2023-03-29T02:27:49.664Z,175.88
2023-03-29T02:31:49.850Z,176.01
2023-03-29T02:35:50.112Z,175.59
2023-03-29T02:39:50.288Z,175.66
2023-03-29T02:43:50.502Z,175.38
2023-03-29T02:47:50.787Z,175.78
2023-03-29T02:51:51.015Z,175.96
2023-03-29T02:55:51.254Z,175.48
2023-03-29T02:59:51.504Z,175.53
2023-03-29T03:03:51.863Z,175.43
2023-03-29T03:07:51.946Z,175.19
2023-03-29T03:11:52.169Z,174.94
2023-03-29T03:15:52.465Z,174.88
2023-03-29T03:19:52.406Z,174.56
2023-03-29T03:23:52.413Z,174.98
2023-03-29T03:27:52.393Z,175.04
2023-03-29T03:31:53.957Z,174.38
2023-03-29T03:35:52.417Z,174.92
2023-03-29T03:39:52.335Z,174.41
2023-03-29T03:43:52.552Z,174.45
2023-03-29T03:47:52.577Z,174.13
2023-03-29T03:51:52.736Z,174.52
2023-03-29T03:55:52.480Z,173.94
2023-03-29T03:59:52.474Z,174.39
2023-03-29T04:03:52.569Z,174.84
2023-03-29T04:07:52.473Z,173.31
2023-03-29T04:11:52.460Z,173.81
2023-03-29T04:15:52.485Z,173.83
2023-03-29T04:19:52.412Z,172.90
2023-03-29T04:23:52.465Z,173.19
2023-03-29T04:27:52.701Z,173.51
2023-03-29T04:31:52.878Z,173.63
2023-03-29T04:35:52.785Z,173.05
2023-03-29T04:39:52.696Z,173.25
2023-03-29T04:43:52.719Z,172.75
2023-03-29T04:47:52.742Z,173.26
2023-03-29T04:51:52.709Z,173.51
2023-03-29T04:55:52.686Z,172.70
2023-03-29T04:59:52.684Z,173.08
2023-03-29T05:03:52.721Z,173.72
2023-03-29T05:07:52.921Z,173.73
2023-03-29T05:11:52.912Z,172.73
2023-03-29T05:15:52.942Z,173.35
2023-03-29T05:19:52.844Z,172.98
2023-03-29T05:23:52.832Z,173.13
2023-03-29T05:27:52.817Z,174.12
2023-03-29T05:31:52.823Z,173.00
2023-03-29T05:35:52.841Z,173.28
2023-03-29T05:39:52.783Z,173.92
2023-03-29T05:43:52.772Z,174.76
2023-03-29T05:47:52.861Z,174.91
2023-03-29T05:51:53.270Z,175.57
2023-03-29T05:55:52.778Z,178.73
2023-03-29T05:59:52.727Z,180.48
2023-03-29T06:03:52.933Z,181.77
2023-03-29T06:07:52.796Z,184.22
2023-03-29T06:11:52.665Z,185.58
2023-03-29T06:15:52.654Z,186.95
2023-03-29T06:19:52.633Z,189.29
2023-03-29T06:23:52.632Z,190.72
2023-03-29T06:27:52.816Z,191.42
2023-03-29T06:31:53.080Z,192.25
2023-03-29T06:35:53.300Z,192.46
2023-03-29T06:39:53.543Z,192.57
2023-03-29T06:43:53.773Z,193.42
2023-03-29T06:47:54.392Z,194.63
2023-03-29T06:51:54.209Z,194.69
2023-03-29T06:55:54.388Z,195.47
2023-03-29T06:59:55.111Z,199.68
2023-03-29T07:03:54.865Z,202.73
2023-03-29T07:07:54.954Z,204.95
2023-03-29T07:11:55.091Z,206.57
2023-03-29T07:15:55.214Z,209.75
2023-03-29T07:19:55.307Z,212.39
2023-03-29T07:23:55.393Z,214.36
2023-03-29T07:27:55.828Z,215.16
2023-03-29T07:31:56.343Z,217.85
2023-03-29T09:35:57.412Z,221.88
2023-03-29T09:39:57.893Z,228.06
2023-03-29T09:43:57.914Z,196.82
2023-03-29T09:47:57.910Z,200.47
2023-03-29T09:51:58.353Z,192.54
2023-03-29T09:55:57.990Z,181.65
2023-03-29T09:59:58.033Z,180.84
2023-03-29T10:03:58.182Z,171.74
2023-03-29T10:07:58.192Z,171.21
2023-03-29T10:11:58.468Z,166.71
2023-03-29T10:15:58.443Z,166.49
2023-03-29T10:19:58.529Z,156.80
2023-03-29T10:23:58.660Z,146.02
2023-03-29T10:27:58.878Z,158.18
2023-03-29T10:31:59.096Z,159.99
2023-03-29T10:35:59.455Z,152.94
2023-03-29T10:39:59.396Z,140.83
2023-03-29T10:43:59.069Z,138.17
2023-03-29T10:47:59.185Z,144.11
2023-03-29T10:51:59.102Z,145.00
2023-03-29T10:55:59.146Z,131.08
2023-03-29T10:59:59.170Z,158.96
2023-03-29T11:03:59.283Z,161.48
2023-03-29T11:07:59.194Z,161.14
2023-03-29T11:12:14.527Z,162.36
2023-03-29T11:16:00.410Z,159.32
2023-03-29T11:20:06.196Z,155.65
2023-03-29T11:23:59.253Z,155.95
2023-03-29T11:27:59.413Z,150.29
2023-03-29T11:31:59.552Z,155.85
2023-03-29T11:35:59.255Z,155.39
2023-03-29T11:39:59.200Z,150.41
2023-03-29T11:43:59.178Z,100.80
2023-03-29T11:47:59.389Z,91.15
2023-03-29T11:51:59.423Z,62.70
2023-03-29T11:55:59.459Z,54.72
2023-03-29T11:59:59.498Z,38.62
2023-03-29T12:03:59.583Z,36.72
2023-03-29T12:07:59.689Z,29.52
2023-03-29T12:11:59.755Z,27.18
2023-03-29T12:15:59.860Z,29.14
2023-03-29T12:20:00.003Z,36.92
2023-03-29T12:24:00.156Z,26.00
2023-03-29T12:28:00.336Z,25.00
2023-03-29T12:32:00.502Z,28.14
2023-03-29T12:36:00.688Z,25.64
2023-03-29T12:40:00.810Z,25.04
2023-03-29T12:44:00.929Z,31.32
2023-03-29T12:48:01.162Z,28.82
2023-03-29T12:52:01.330Z,38.35
2023-03-29T12:56:02.226Z,39.46
2023-03-29T13:00:01.662Z,48.84
2023-03-29T13:04:01.852Z,38.09
2023-03-29T13:08:01.992Z,41.72
2023-03-29T13:12:02.134Z,46.02
2023-03-29T13:16:02.646Z,47.87
2023-03-29T13:20:02.420Z,34.53
2023-03-29T13:24:02.574Z,35.14
2023-03-29T13:28:02.788Z,75.07
2023-03-29T13:32:03.039Z,98.89
2023-03-29T13:36:03.319Z,112.27
2023-03-29T13:40:03.152Z,126.95
2023-03-29T13:44:03.242Z,140.07
2023-03-29T13:48:05.690Z,146.97
2023-03-29T13:52:03.270Z,152.56
2023-03-29T13:56:03.522Z,156.60
2023-03-29T14:00:03.206Z,159.76
2023-03-29T14:04:03.180Z,161.89
2023-03-29T14:08:03.094Z,163.91
2023-03-29T14:12:03.087Z,165.61
2023-03-29T14:16:03.242Z,166.69
2023-03-29T14:20:02.950Z,168.77
2023-03-29T14:24:02.916Z,169.95
2023-03-29T14:28:02.841Z,170.66
2023-03-29T14:32:02.812Z,171.17
2023-03-29T14:36:02.987Z,170.65
2023-03-29T14:40:02.712Z,171.64
2023-03-29T14:44:02.648Z,171.19
2023-03-29T14:48:02.723Z,171.00
2023-03-29T14:52:02.752Z,171.12
2023-03-29T14:56:03.045Z,171.33
2023-03-29T15:00:03.036Z,171.38
2023-03-29T15:04:03.053Z,171.69
2023-03-29T15:08:03.037Z,171.81
2023-03-29T15:12:03.052Z,172.07
2023-03-29T15:16:05.949Z,172.92
2023-03-29T15:20:03.131Z,173.01
2023-03-29T15:24:03.065Z,175.70
2023-03-29T15:28:02.980Z,174.70
2023-03-29T15:32:03.027Z,175.23
2023-03-29T15:36:03.028Z,175.00
2023-03-29T15:40:02.854Z,175.10
2023-03-29T15:44:02.787Z,175.35
2023-03-29T15:48:02.853Z,175.56
2023-03-29T15:52:02.809Z,176.11
2023-03-29T15:56:03.167Z,176.27
2023-03-29T16:00:02.741Z,175.98
2023-03-29T16:04:02.820Z,176.21
2023-03-29T16:08:02.864Z,176.10
2023-03-29T16:12:02.927Z,176.10
2023-03-29T16:16:03.346Z,176.57
2023-03-29T16:20:03.076Z,176.37
2023-03-29T16:24:03.124Z,175.93
2023-03-29T16:28:03.236Z,176.41
2023-03-29T16:32:05.349Z,176.17
2023-03-29T16:36:03.783Z,176.22
2023-03-29T16:40:03.320Z,175.96
2023-03-29T16:44:03.359Z,175.76
2023-03-29T16:48:03.435Z,175.78
2023-03-29T16:52:03.421Z,175.70
2023-03-29T16:56:03.608Z,175.55
2023-03-29T17:00:03.424Z,175.64
2023-03-29T17:04:03.603Z,175.66
2023-03-29T17:08:03.503Z,175.08
2023-03-29T17:12:03.513Z,174.89
2023-03-29T17:16:03.746Z,175.08
2023-03-29T17:20:03.578Z,175.09
2023-03-29T17:24:03.620Z,175.36
2023-03-29T17:28:03.616Z,174.72
2023-03-29T17:32:03.656Z,175.21
2023-03-29T17:36:04.035Z,174.47
2023-03-29T17:40:03.681Z,174.48
2023-03-29T17:44:03.705Z,174.18
2023-03-29T17:48:06.163Z,173.57
2023-03-29T17:52:03.570Z,174.06
2023-03-29T17:56:03.737Z,173.94
2023-03-29T18:00:03.552Z,173.46
2023-03-29T18:04:03.511Z,173.13
2023-03-29T18:08:03.477Z,173.05
2023-03-29T18:12:03.484Z,172.46
2023-03-29T18:16:03.572Z,171.79
2023-03-29T18:20:03.363Z,170.94
2023-03-29T18:24:03.364Z,170.76
2023-03-29T18:28:03.315Z,171.04
2023-03-29T18:32:03.403Z,170.32
2023-03-29T18:36:03.539Z,170.19
2023-03-29T18:40:03.233Z,169.90
2023-03-29T18:44:03.230Z,169.94
2023-03-29T18:48:03.245Z,169.25
2023-03-29T18:52:03.242Z,168.98
2023-03-29T18:56:03.403Z,168.87
2023-03-29T19:00:03.310Z,168.43
2023-03-29T19:04:03.321Z,168.45
2023-03-29T19:08:03.301Z,167.89
2023-03-29T19:12:03.322Z,167.62
2023-03-29T19:16:03.619Z,166.97
2023-03-29T19:20:03.365Z,166.78
2023-03-29T19:24:03.359Z,166.57
2023-03-29T19:28:03.425Z,165.56
2023-03-29T19:32:03.413Z,165.44
2023-03-29T19:36:03.795Z,165.43
2023-03-29T19:40:03.640Z,165.11
2023-03-29T19:44:03.686Z,165.01
2023-03-29T19:48:03.880Z,163.78
2023-03-29T19:52:03.858Z,163.80
2023-03-29T19:56:04.144Z,163.46
2023-03-29T20:00:04.022Z,163.38
2023-03-29T20:04:04.158Z,162.61
2023-03-29T20:08:04.250Z,161.99
2023-03-29T20:12:04.353Z,162.03
2023-03-29T20:16:04.433Z,161.85
2023-03-29T20:20:04.537Z,162.05
2023-03-29T20:24:04.636Z,162.07
2023-03-29T20:28:04.759Z,160.93
2023-03-29T20:32:04.912Z,160.36
2023-03-29T20:36:05.067Z,160.40
2023-03-29T20:40:05.061Z,159.91
2023-03-29T20:44:05.151Z,159.72
2023-03-29T20:48:05.271Z,159.06
2023-03-29T20:52:05.358Z,159.17
2023-03-29T20:56:05.488Z,158.25
2023-03-29T21:00:05.592Z,158.35
2023-03-29T21:04:05.747Z,157.58
2023-03-29T21:08:05.834Z,157.30
2023-03-29T21:12:05.943Z,157.90
2023-03-29T21:16:06.175Z,157.14
2023-03-29T21:20:06.195Z,157.07
2023-03-29T21:24:06.276Z,155.84
2023-03-29T21:28:06.409Z,155.81
2023-03-29T21:32:06.616Z,155.97
2023-03-29T21:36:06.698Z,155.02
2023-03-29T21:40:06.734Z,155.38
2023-03-29T21:44:06.877Z,155.40
2023-03-29T21:48:06.994Z,154.69
2023-03-29T21:52:07.086Z,154.14
2023-03-29T21:56:07.191Z,154.24
2023-03-29T22:00:07.350Z,153.69
2023-03-29T22:04:07.428Z,152.79
2023-03-29T22:08:07.563Z,153.01
2023-03-29T22:12:07.688Z,152.81
2023-03-29T22:16:07.876Z,152.79
2023-03-29T22:20:07.936Z,152.12
2023-03-29T22:24:08.019Z,151.80
2023-03-29T22:28:08.222Z,151.12
2023-03-29T22:32:08.350Z,151.07
2023-03-29T22:36:08.481Z,150.83
2023-03-29T22:40:08.554Z,150.20
2023-03-29T22:44:08.701Z,150.76
2023-03-29T22:48:08.833Z,149.18
2023-03-29T22:52:08.953Z,149.51
2023-03-29T22:56:09.127Z,149.05
2023-03-29T23:00:09.528Z,148.92
2023-03-29T23:04:09.315Z,149.21
2023-03-29T23:08:09.425Z,149.15
2023-03-29T23:12:09.523Z,148.41
2023-03-29T23:16:09.710Z,148.25
2023-03-29T23:20:09.783Z,148.30
2023-03-29T23:24:09.953Z,147.43
2023-03-29T23:28:10.031Z,147.60
2023-03-29T23:32:10.201Z,146.80
2023-03-29T23:36:10.421Z,146.28
2023-03-29T23:40:10.461Z,146.57
2023-03-29T23:44:10.638Z,146.04
2023-03-29T23:48:10.762Z,146.00
2023-03-29T23:52:10.891Z,146.13
2023-03-29T23:56:11.028Z,144.40
